Time;durP1;ratioP1;P1;durP2;ratioP2;P2;SDS_P1;SDS_P2;PMS_P1;PMS_P2;Temp;Humidity;BMP_temperature;BMP_pressure;BME280_temperature;BME280_humidity;BME280_pressure;Samples;Min_cycle;Max_cycle;Signal;HPM_P1;HPM_P2
2023/12/09 00:00:25;;;;;;;117.47;46.35;;;12.20;99.90;;;;;;5015211;28;20038;-81
2023/12/09 00:02:51;;;;;;;98.20;41.83;;;12.30;99.90;;;;;;5021658;28;20034;-76
2023/12/09 00:05:16;;;;;;;95.95;40.67;;;12.30;99.90;;;;;;5025048;28;20313;-75
2023/12/09 00:07:42;;;;;;;101.55;43.15;;;12.30;99.90;;;;;;4995553;28;20046;-78
2023/12/09 00:10:09;;;;;;;103.10;43.90;;;11.90;99.90;;;;;;5024188;28;20130;-78
2023/12/09 00:12:34;;;;;;;105.45;44.85;;;12.30;99.90;;;;;;5022789;28;20045;-78
2023/12/09 00:15:00;;;;;;;88.90;40.78;;;12.00;99.90;;;;;;5010639;28;20034;-82
2023/12/09 00:17:26;;;;;;;102.22;42.70;;;12.00;99.90;;;;;;5001636;28;20045;-81
2023/12/09 00:19:51;;;;;;;112.55;43.13;;;12.30;99.90;;;;;;5011161;28;20038;-79
2023/12/09 00:22:17;;;;;;;104.60;42.05;;;12.40;99.90;;;;;;5034316;28;20048;-79
2023/12/09 00:24:43;;;;;;;127.72;44.17;;;12.40;99.90;;;;;;5017530;28;20068;-78
2023/12/09 00:27:08;;;;;;;119.63;42.95;;;12.50;99.90;;;;;;5013183;28;20037;-77
2023/12/09 00:29:34;;;;;;;101.65;37.97;;;12.50;99.90;;;;;;5019964;28;20405;-77
2023/12/09 00:32:00;;;;;;;102.28;41.47;;;11.90;99.90;;;;;;5020880;28;20041;-82
2023/12/09 00:34:25;;;;;;;98.07;39.95;;;11.90;99.90;;;;;;5001871;28;20049;-80
2023/12/09 00:36:51;;;;;;;106.80;40.65;;;12.50;99.90;;;;;;4997801;28;20037;-79
2023/12/09 00:39:17;;;;;;;100.68;40.58;;;11.90;99.90;;;;;;4999417;28;20040;-77
2023/12/09 00:41:43;;;;;;;108.38;42.53;;;11.90;99.90;;;;;;5032169;28;20091;-76
2023/12/09 00:44:08;;;;;;;93.85;41.17;;;12.00;99.90;;;;;;5020350;28;20041;-73
2023/12/09 00:46:34;;;;;;;101.22;39.40;;;12.50;99.90;;;;;;5023456;28;20124;-76
2023/12/09 00:49:00;;;;;;;89.30;40.22;;;12.50;99.90;;;;;;5035042;28;20432;-76
2023/12/09 00:51:25;;;;;;;87.35;39.13;;;12.50;99.90;;;;;;5033733;28;20392;-76
2023/12/09 00:53:51;;;;;;;99.65;39.72;;;12.00;99.90;;;;;;5034138;28;20124;-76
2023/12/09 00:56:17;;;;;;;87.50;39.05;;;12.50;99.90;;;;;;5030634;28;20049;-80
2023/12/09 00:58:42;;;;;;;87.93;39.72;;;12.20;99.90;;;;;;5032158;28;20040;-78
2023/12/09 01:01:08;;;;;;;81.18;38.15;;;12.00;99.90;;;;;;5031782;28;20037;-80
2023/12/09 01:03:33;;;;;;;89.75;39.20;;;12.30;99.90;;;;;;5003302;28;20044;-76
2023/12/09 01:05:59;;;;;;;97.68;39.33;;;12.10;99.90;;;;;;5054132;28;20040;-78
2023/12/09 01:08:25;;;;;;;93.55;40.20;;;12.30;99.90;;;;;;5013813;28;20118;-76
2023/12/09 01:10:52;;;;;;;100.70;40.13;;;12.20;99.90;;;;;;5018026;28;20055;-79
2023/12/09 01:13:17;;;;;;;98.63;41.47;;;11.90;99.90;;;;;;5031224;28;20050;-77
2023/12/09 01:15:43;;;;;;;70.25;32.88;;;12.10;99.90;;;;;;5032678;28;20049;-77
2023/12/09 01:18:09;;;;;;;85.78;37.58;;;12.00;99.90;;;;;;5008588;28;20047;-79
2023/12/09 01:20:34;;;;;;;73.03;37.55;;;12.60;99.90;;;;;;5030151;28;20047;-78
2023/12/09 01:23:00;;;;;;;90.70;38.58;;;12.60;99.90;;;;;;5033476;28;20079;-77
2023/12/09 01:25:26;;;;;;;88.20;37.28;;;12.40;99.90;;;;;;5033435;28;20041;-76
2023/12/09 01:27:52;;;;;;;77.93;36.72;;;12.60;99.90;;;;;;5024518;28;20111;-79
2023/12/09 01:30:18;;;;;;;89.68;37.90;;;12.30;99.90;;;;;;5018133;28;20095;-77
2023/12/09 01:32:43;;;;;;;89.18;38.83;;;12.50;99.90;;;;;;5043534;28;20081;-76
2023/12/09 01:35:10;;;;;;;83.07;36.15;;;12.30;99.90;;;;;;5012826;28;20041;-79
2023/12/09 01:37:35;;;;;;;77.50;35.65;;;12.20;99.90;;;;;;4992007;28;20060;-76
2023/12/09 01:40:01;;;;;;;86.07;35.80;;;12.10;99.90;;;;;;5033740;28;20036;-76
2023/12/09 01:42:27;;;;;;;78.28;36.17;;;12.60;99.90;;;;;;5021120;28;20041;-82
2023/12/09 01:44:53;;;;;;;90.55;38.50;;;12.60;99.90;;;;;;5008755;28;20036;-78
2023/12/09 01:47:18;;;;;;;64.13;34.92;;;12.70;99.90;;;;;;5002017;28;20056;-74
2023/12/09 01:49:44;;;;;;;93.00;40.60;;;12.50;99.90;;;;;;5000466;28;20049;-79
2023/12/09 01:52:10;;;;;;;85.00;36.25;;;12.10;99.90;;;;;;5011217;28;20137;-80
2023/12/09 01:54:36;;;;;;;79.97;35.45;;;12.10;99.90;;;;;;5025981;28;20049;-77
2023/12/09 01:57:03;;;;;;;85.38;35.85;;;12.70;99.90;;;;;;5005873;28;20042;-77
2023/12/09 01:59:32;;;;;;;80.63;33.83;;;12.40;99.90;;;;;;5019339;28;20076;-75
2023/12/09 02:01:58;;;;;;;77.30;35.60;;;12.20;99.90;;;;;;5022664;28;20041;-77
2023/12/09 02:04:24;;;;;;;71.07;34.33;;;12.20;99.90;;;;;;5030785;28;20488;-77
2023/12/09 02:06:50;;;;;;;71.20;33.03;;;12.50;99.90;;;;;;4979132;28;20128;-76
2023/12/09 02:09:18;;;;;;;67.75;33.60;;;12.10;99.90;;;;;;5000427;28;20144;-80
2023/12/09 02:12:06;;;;;;;81.43;33.83;;;12.70;99.90;;;;;;4982463;28;20512;-76
2023/12/09 02:15:05;;;;;;;80.82;33.28;;;12.70;99.90;;;;;;5003273;28;20033;-76
2023/12/09 02:17:49;;;;;;;78.35;33.95;;;12.60;99.90;;;;;;4985450;28;20505;-79
2023/12/09 02:20:15;;;;;;;74.05;30.63;;;12.40;99.90;;;;;;5012778;28;20127;-81
2023/12/09 02:22:41;;;;;;;72.50;33.03;;;12.70;99.90;;;;;;5014857;28;20076;-74
2023/12/09 02:25:07;;;;;;;77.68;31.13;;;12.70;99.90;;;;;;5016207;28;20041;-80
2023/12/09 02:27:47;;;;;;;75.25;31.90;;;12.60;99.90;;;;;;5025184;28;20060;-76
2023/12/09 02:30:36;;;;;;;88.38;34.72;;;12.60;99.90;;;;;;5030902;28;20461;-80
2023/12/09 02:33:06;;;;;;;68.88;32.13;;;12.10;99.90;;;;;;5012713;28;20033;-76
2023/12/09 02:35:36;;;;;;;67.93;32.38;;;12.80;99.90;;;;;;5011962;28;20061;-79
2023/12/09 02:38:04;;;;;;;74.95;32.63;;;12.80;99.90;;;;;;5011170;28;20038;-76
2023/12/09 02:40:30;;;;;;;70.55;30.40;;;12.20;99.90;;;;;;5013456;28;20045;-75
2023/12/09 02:42:56;;;;;;;67.25;30.60;;;12.70;99.90;;;;;;4996225;28;20052;-78
2023/12/09 02:45:22;;;;;;;68.53;31.20;;;12.30;99.90;;;;;;5015594;28;20045;-77
2023/12/09 02:47:48;;;;;;;74.07;30.98;;;12.70;99.90;;;;;;5010379;28;20466;-79
2023/12/09 02:50:14;;;;;;;63.58;31.45;;;12.80;99.90;;;;;;5010016;28;20060;-78
2023/12/09 02:52:40;;;;;;;76.10;32.17;;;12.30;99.90;;;;;;5013033;28;20044;-76
2023/12/09 02:55:07;;;;;;;62.03;30.88;;;12.30;99.90;;;;;;5018685;28;20130;-77
2023/12/09 02:57:33;;;;;;;73.32;29.77;;;12.60;99.90;;;;;;5021110;28;20552;-77
2023/12/09 02:59:59;;;;;;;68.10;30.40;;;12.40;99.90;;;;;;4996382;28;20131;-75
2023/12/09 03:02:24;;;;;;;60.88;29.58;;;12.20;99.90;;;;;;5014796;28;20365;-79
2023/12/09 03:04:50;;;;;;;61.80;29.90;;;12.30;99.90;;;;;;5020874;28;20073;-80
2023/12/09 03:07:20;;;;;;;67.53;30.70;;;12.90;99.90;;;;;;5000544;28;20041;-78
2023/12/09 03:09:46;;;;;;;65.75;30.50;;;12.20;99.90;;;;;;5020484;28;20049;-79
2023/12/09 03:12:12;;;;;;;68.78;31.02;;;12.90;99.90;;;;;;4992712;28;20406;-79
2023/12/09 03:14:38;;;;;;;62.88;29.83;;;12.20;99.90;;;;;;4991844;28;20040;-76
2023/12/09 03:17:05;;;;;;;67.70;29.67;;;12.50;99.90;;;;;;5021684;28;20045;-78
2023/12/09 03:19:31;;;;;;;67.75;28.98;;;12.20;99.90;;;;;;5011946;28;20052;-79
2023/12/09 03:21:57;;;;;;;61.95;29.70;;;12.30;99.90;;;;;;5013850;28;20116;-77
2023/12/09 03:24:22;;;;;;;69.60;29.27;;;12.30;99.90;;;;;;5011072;28;20430;-76
2023/12/09 03:26:52;;;;;;;61.78;27.92;;;12.60;99.90;;;;;;5014187;28;20130;-80
2023/12/09 03:29:18;;;;;;;67.38;27.33;;;12.20;99.90;;;;;;5007651;28;20044;-81
2023/12/09 03:31:44;;;;;;;58.80;27.33;;;12.70;99.90;;;;;;5031772;28;20476;-77
2023/12/09 03:34:11;;;;;;;60.40;28.58;;;12.30;99.90;;;;;;5020144;28;20042;-81
2023/12/09 03:36:37;;;;;;;53.50;28.20;;;12.20;99.90;;;;;;5003668;28;20065;-75
2023/12/09 03:39:03;;;;;;;63.95;26.08;;;12.10;99.90;;;;;;5002236;28;20041;-76
2023/12/09 03:41:29;;;;;;;53.80;26.85;;;12.10;99.90;;;;;;5015504;28;20087;-79
2023/12/09 03:43:55;;;;;;;64.18;27.55;;;12.20;99.90;;;;;;5012606;28;20457;-76
2023/12/09 03:46:21;;;;;;;60.78;28.10;;;12.70;99.90;;;;;;5044960;28;20044;-78
2023/12/09 03:48:47;;;;;;;52.50;24.90;;;12.30;99.90;;;;;;5024200;28;20056;-78
2023/12/09 03:51:13;;;;;;;57.22;27.55;;;12.70;99.90;;;;;;5018147;28;20076;-80
2023/12/09 03:53:40;;;;;;;58.45;26.33;;;12.00;99.90;;;;;;5014555;28;20049;-77
2023/12/09 03:56:06;;;;;;;49.63;25.23;;;12.50;99.90;;;;;;5027282;28;20048;-75
2023/12/09 03:58:32;;;;;;;55.05;26.75;;;12.20;99.90;;;;;;5016274;28;20124;-79
2023/12/09 04:00:58;;;;;;;50.60;24.60;;;12.90;99.90;;;;;;5031350;28;20115;-76
2023/12/09 04:03:23;;;;;;;53.83;25.75;;;12.70;99.90;;;;;;5017255;28;20087;-76
2023/12/09 04:05:50;;;;;;;54.25;25.92;;;12.70;99.90;;;;;;5035255;28;20095;-77
2023/12/09 04:08:15;;;;;;;46.40;23.02;;;12.60;99.90;;;;;;5015575;28;20483;-76
2023/12/09 04:10:41;;;;;;;45.42;23.02;;;11.80;99.90;;;;;;4996195;28;20041;-76
2023/12/09 04:13:07;;;;;;;47.92;23.33;;;12.30;99.90;;;;;;5028912;28;20049;-79
2023/12/09 04:15:32;;;;;;;55.38;23.23;;;12.50;99.90;;;;;;5029625;28;20030;-79
2023/12/09 04:17:58;;;;;;;40.28;22.70;;;11.90;99.90;;;;;;5006201;28;20030;-77
2023/12/09 04:20:24;;;;;;;45.03;21.92;;;11.90;99.90;;;;;;4998857;28;20452;-77
2023/12/09 04:22:49;;;;;;;41.13;21.48;;;12.90;99.90;;;;;;4997813;28;20072;-79
2023/12/09 04:25:15;;;;;;;45.45;21.73;;;11.80;99.90;;;;;;5015389;28;20045;-80
2023/12/09 04:27:41;;;;;;;47.50;22.17;;;12.60;99.90;;;;;;5004002;28;20512;-76
2023/12/09 04:30:08;;;;;;;41.83;20.45;;;11.80;99.90;;;;;;5014945;28;20136;-74
2023/12/09 04:32:35;;;;;;;38.42;21.33;;;12.00;99.90;;;;;;5039862;28;20044;-77
2023/12/09 04:35:00;;;;;;;47.40;22.20;;;11.90;99.90;;;;;;5001869;28;20045;-79
2023/12/09 04:37:26;;;;;;;47.92;21.92;;;12.90;99.90;;;;;;5033456;28;20438;-80
2023/12/09 04:39:52;;;;;;;51.85;23.67;;;12.00;99.90;;;;;;5004376;28;20042;-78
2023/12/09 04:42:19;;;;;;;45.63;22.40;;;12.90;99.90;;;;;;5014620;28;20037;-75
2023/12/09 04:44:45;;;;;;;49.47;22.95;;;11.90;99.90;;;;;;5028469;28;20033;-74
2023/12/09 04:47:11;;;;;;;50.00;21.48;;;12.30;99.90;;;;;;5014359;28;20045;-76
2023/12/09 04:49:36;;;;;;;39.97;21.83;;;11.70;99.90;;;;;;5009191;28;20744;-80
2023/12/09 04:52:03;;;;;;;41.88;21.30;;;12.90;99.90;;;;;;4991425;28;20052;-77
2023/12/09 04:54:29;;;;;;;47.90;21.45;;;12.60;99.90;;;;;;5010016;28;20056;-80
2023/12/09 04:56:56;;;;;;;41.40;20.83;;;12.90;99.90;;;;;;5030113;28;20033;-78
2023/12/09 04:59:22;;;;;;;40.10;20.05;;;12.70;99.90;;;;;;5015023;28;20394;-76
2023/12/09 05:01:48;;;;;;;40.58;20.48;;;11.70;99.90;;;;;;5001678;28;20076;-79
2023/12/09 05:04:14;;;;;;;43.53;21.40;;;11.70;99.90;;;;;;4997024;28;20582;-79
2023/12/09 05:06:40;;;;;;;37.58;20.60;;;11.40;99.90;;;;;;5030500;28;20359;-76
2023/12/09 05:09:15;;;;;;;44.72;20.48;;;13.00;99.90;;;;;;5003334;28;20045;-79
2023/12/09 05:11:42;;;;;;;38.38;20.50;;;11.60;99.90;;;;;;5019685;28;20041;-77
2023/12/09 05:14:07;;;;;;;46.22;19.73;;;12.70;99.90;;;;;;4997660;28;20053;-74
2023/12/09 05:16:33;;;;;;;43.28;20.90;;;11.50;99.90;;;;;;5026809;28;20052;-76
2023/12/09 05:18:59;;;;;;;42.25;19.05;;;12.30;99.90;;;;;;5021829;28;20030;-76
2023/12/09 05:21:25;;;;;;;40.17;20.13;;;11.30;99.90;;;;;;5005355;28;20033;-75
2023/12/09 05:23:50;;;;;;;36.35;18.50;;;11.50;99.90;;;;;;5010952;28;20378;-78
2023/12/09 05:26:23;;;;;;;42.63;19.45;;;12.20;99.90;;;;;;5022807;28;20045;-75
2023/12/09 05:28:50;;;;;;;34.10;17.92;;;12.90;99.90;;;;;;5010556;28;20051;-76
2023/12/09 05:31:16;;;;;;;38.20;18.77;;;11.70;99.90;;;;;;5006574;28;20064;-76
2023/12/09 05:33:42;;;;;;;42.10;18.40;;;12.60;99.90;;;;;;5024276;28;20120;-77
2023/12/09 05:36:09;;;;;;;38.00;17.73;;;12.70;99.90;;;;;;5013503;28;20634;-77
2023/12/09 05:38:35;;;;;;;39.33;17.92;;;11.50;99.90;;;;;;4997236;28;20080;-77
2023/12/09 05:41:01;;;;;;;41.03;18.10;;;13.10;99.90;;;;;;5011825;28;20165;-79
2023/12/09 05:43:27;;;;;;;37.00;16.20;;;12.80;99.90;;;;;;4998714;28;20121;-78
2023/12/09 05:45:53;;;;;;;39.97;17.15;;;11.40;99.90;;;;;;5006196;28;20038;-79
2023/12/09 05:48:20;;;;;;;33.85;16.75;;;11.40;99.90;;;;;;5012351;28;20054;-77
2023/12/09 05:50:45;;;;;;;47.22;18.17;;;11.50;99.90;;;;;;5027629;28;20041;-80
2023/12/09 05:53:11;;;;;;;35.78;17.02;;;11.30;99.90;;;;;;5006509;28;20037;-78
2023/12/09 05:55:37;;;;;;;48.03;17.40;;;13.00;99.90;;;;;;5010062;28;20038;-78
2023/12/09 05:58:08;;;;;;;45.80;18.20;;;13.20;99.90;;;;;;5009914;28;20441;-78
2023/12/09 06:00:35;;;;;;;38.67;17.13;;;12.10;99.90;;;;;;4998584;28;20465;-78
2023/12/09 06:03:13;;;;;;;34.97;17.02;;;11.30;99.90;;;;;;5010818;28;20054;-78
2023/12/09 06:05:40;;;;;;;43.70;17.20;;;13.20;99.90;;;;;;4990632;28;20037;-78
2023/12/09 06:08:09;;;;;;;36.17;16.35;;;13.20;99.90;;;;;;5014429;28;20048;-76
2023/12/09 06:10:45;;;;;;;38.42;16.58;;;11.60;99.90;;;;;;4990993;28;20069;-75
2023/12/09 06:13:13;;;;;;;38.33;15.75;;;13.20;99.90;;;;;;5037198;28;20125;-78
2023/12/09 06:15:39;;;;;;;28.67;15.25;;;11.40;99.90;;;;;;4996265;28;20037;-76
2023/12/09 06:18:12;;;;;;;32.70;14.88;;;12.20;99.90;;;;;;5012629;28;20581;-78
2023/12/09 06:20:42;;;;;;;32.17;16.98;;;13.00;99.90;;;;;;4991667;28;20380;-77
2023/12/09 06:23:08;;;;;;;34.22;16.17;;;13.20;99.90;;;;;;5006883;28;20044;-77
2023/12/09 06:25:34;;;;;;;36.58;16.70;;;12.70;99.90;;;;;;5008185;28;20378;-79
2023/12/09 06:28:01;;;;;;;34.95;16.23;;;12.50;99.90;;;;;;4988187;28;20037;-77
2023/12/09 06:30:27;;;;;;;35.08;16.77;;;12.40;99.90;;;;;;5007354;28;20077;-74
2023/12/09 06:32:54;;;;;;;33.55;15.88;;;11.30;99.90;;;;;;5009252;28;20440;-77
2023/12/09 06:35:30;;;;;;;26.55;15.32;;;11.70;99.90;;;;;;4983897;28;20372;-78
2023/12/09 06:37:58;;;;;;;33.92;16.55;;;12.70;99.90;;;;;;5005694;28;20044;-75
2023/12/09 06:40:24;;;;;;;34.55;16.08;;;13.20;99.90;;;;;;4985639;28;20116;-79
2023/12/09 06:42:52;;;;;;;35.13;16.42;;;12.90;99.90;;;;;;5015916;28;20150;-77
2023/12/09 06:45:18;;;;;;;36.50;16.35;;;11.70;99.90;;;;;;4999195;28;20429;-74
2023/12/09 06:47:45;;;;;;;36.42;16.90;;;11.40;99.90;;;;;;4965797;28;20041;-75
2023/12/09 06:50:13;;;;;;;33.83;15.73;;;11.80;99.90;;;;;;5000501;28;20049;-76
2023/12/09 06:52:39;;;;;;;45.05;17.77;;;11.60;99.90;;;;;;4995923;28;20105;-76
2023/12/09 06:55:06;;;;;;;33.20;16.42;;;13.10;99.90;;;;;;5035389;28;20119;-76
2023/12/09 06:57:32;;;;;;;37.78;17.13;;;11.60;99.90;;;;;;5031919;28;20401;-73
2023/12/09 06:59:58;;;;;;;35.20;16.75;;;11.30;99.90;;;;;;5008216;28;20701;-73
2023/12/09 07:02:23;;;;;;;34.17;17.17;;;13.10;99.90;;;;;;4998013;28;20036;-75
2023/12/09 07:04:49;;;;;;;33.28;16.52;;;12.10;99.90;;;;;;5035885;28;20043;-75
2023/12/09 07:07:15;;;;;;;35.30;17.48;;;12.80;99.90;;;;;;5035462;28;20102;-77
2023/12/09 07:09:40;;;;;;;33.35;17.42;;;13.00;99.90;;;;;;5027842;28;20040;-76
2023/12/09 07:12:06;;;;;;;36.95;16.83;;;12.50;99.90;;;;;;5034210;28;20044;-76
2023/12/09 07:14:32;;;;;;;29.02;16.33;;;12.80;99.90;;;;;;5028047;28;20048;-79
2023/12/09 07:16:57;;;;;;;40.78;18.38;;;12.80;99.90;;;;;;5048822;28;20456;-76
2023/12/09 07:19:23;;;;;;;31.85;15.85;;;12.80;99.90;;;;;;5040306;28;20520;-75
2023/12/09 07:21:50;;;;;;;34.10;17.08;;;12.80;99.90;;;;;;5020364;28;20041;-80
2023/12/09 07:24:16;;;;;;;36.95;16.58;;;12.30;99.90;;;;;;5005995;28;20047;-78
2023/12/09 07:26:42;;;;;;;39.53;16.52;;;12.10;99.90;;;;;;5054398;28;20036;-79
2023/12/09 07:29:08;;;;;;;37.05;15.75;;;11.30;99.90;;;;;;5039143;28;20045;-65
2023/12/09 07:31:34;;;;;;;30.02;16.10;;;12.60;99.90;;;;;;5055565;28;20472;-77
2023/12/09 07:33:59;;;;;;;35.95;16.67;;;11.20;99.90;;;;;;5035197;28;20033;-76
2023/12/09 07:36:25;;;;;;;32.55;15.02;;;12.40;99.90;;;;;;5042599;28;20401;-77
2023/12/09 07:38:51;;;;;;;27.73;15.50;;;11.00;99.90;;;;;;5041092;28;20037;-77
2023/12/09 07:41:16;;;;;;;32.63;16.73;;;12.30;99.90;;;;;;5024079;28;20059;-77
2023/12/09 07:43:42;;;;;;;30.10;14.73;;;11.20;99.90;;;;;;5053957;28;20036;-77
2023/12/09 07:46:08;;;;;;;25.13;12.98;;;12.20;99.90;;;;;;5032828;28;20519;-77
2023/12/09 07:48:33;;;;;;;31.52;15.90;;;11.10;99.90;;;;;;5039401;28;21335;-76
2023/12/09 07:50:59;;;;;;;31.98;14.90;;;12.20;99.90;;;;;;5036238;28;20047;-77
2023/12/09 07:53:25;;;;;;;35.80;17.02;;;12.30;99.90;;;;;;5020167;28;20094;-79
2023/12/09 07:55:51;;;;;;;31.45;14.73;;;10.60;99.90;;;;;;5031812;28;20032;-80
2023/12/09 07:58:16;;;;;;;30.45;14.70;;;11.00;99.90;;;;;;5001198;28;21502;-81
2023/12/09 08:00:42;;;;;;;36.60;15.80;;;12.40;99.90;;;;;;5034633;28;20476;-74
2023/12/09 08:03:08;;;;;;;28.60;14.35;;;10.60;99.90;;;;;;5021246;28;20037;-76
2023/12/09 08:05:38;;;;;;;30.73;14.55;;;12.20;99.90;;;;;;5013815;28;20041;-77
2023/12/09 08:08:04;;;;;;;28.55;13.88;;;11.90;99.90;;;;;;5021579;28;20392;-76
2023/12/09 08:10:29;;;;;;;23.33;13.93;;;11.20;99.90;;;;;;5050577;28;20067;-77
2023/12/09 08:12:56;;;;;;;34.15;14.95;;;11.30;99.90;;;;;;5019541;28;20586;-76
2023/12/09 08:15:21;;;;;;;24.40;13.50;;;12.40;99.90;;;;;;5047689;28;20048;-76
2023/12/09 08:17:47;;;;;;;30.60;14.50;;;10.60;99.90;;;;;;5058862;28;20467;-78
2023/12/09 08:20:13;;;;;;;37.85;14.73;;;12.30;99.90;;;;;;5055458;28;20075;-77
2023/12/09 08:22:39;;;;;;;31.80;14.43;;;12.20;99.90;;;;;;5030028;28;20127;-77
2023/12/09 08:25:09;;;;;;;32.22;13.90;;;11.20;99.90;;;;;;5026373;28;20115;-82
2023/12/09 08:27:35;;;;;;;29.38;13.70;;;11.90;99.90;;;;;;5032656;28;20128;-80
2023/12/09 08:30:03;;;;;;;22.65;12.23;;;10.50;99.90;;;;;;5031559;28;20044;-77
2023/12/09 08:32:28;;;;;;;26.23;12.27;;;12.10;99.90;;;;;;5029207;28;20089;-82
2023/12/09 08:34:54;;;;;;;35.20;13.10;;;12.10;99.90;;;;;;5047403;28;20489;-78
2023/12/09 08:37:25;;;;;;;24.00;10.73;;;11.90;99.90;;;;;;4997522;28;20128;-77
2023/12/09 08:39:54;;;;;;;31.88;11.20;;;10.70;99.90;;;;;;5019694;28;20824;-78
2023/12/09 08:42:20;;;;;;;21.35;10.50;;;11.20;99.90;;;;;;5029075;28;20037;-79
2023/12/09 08:44:46;;;;;;;23.52;10.43;;;11.10;99.90;;;;;;5053448;28;20124;-77
2023/12/09 08:47:12;;;;;;;28.15;11.75;;;12.00;99.90;;;;;;5024211;28;20041;-78
2023/12/09 08:49:38;;;;;;;26.40;12.32;;;12.30;99.90;;;;;;5014010;28;20057;-76
2023/12/09 08:52:04;;;;;;;29.30;11.65;;;10.40;99.90;;;;;;5024231;28;20056;-79
2023/12/09 08:54:30;;;;;;;24.55;11.13;;;11.70;99.90;;;;;;5014474;28;20044;-77
2023/12/09 08:56:56;;;;;;;21.50;10.40;;;11.50;99.90;;;;;;5020356;28;20033;-78
2023/12/09 08:59:21;;;;;;;20.58;10.30;;;12.00;99.90;;;;;;5037375;28;20036;-76
2023/12/09 09:01:47;;;;;;;21.10;9.38;;;11.20;99.90;;;;;;5012309;28;20120;-77
2023/12/09 09:04:13;;;;;;;28.58;10.80;;;10.50;99.90;;;;;;5017124;28;20036;-75
2023/12/09 09:06:38;;;;;;;22.60;9.23;;;10.80;99.90;;;;;;5017217;28;20072;-79
2023/12/09 09:09:04;;;;;;;27.23;9.95;;;11.50;99.90;;;;;;5036605;28;20049;-80
2023/12/09 09:11:30;;;;;;;23.77;9.65;;;10.80;99.90;;;;;;5019020;28;20081;-77
2023/12/09 09:13:55;;;;;;;25.00;9.75;;;11.20;99.90;;;;;;5033573;28;20343;-79
2023/12/09 09:16:21;;;;;;;21.98;8.82;;;10.70;99.90;;;;;;5017674;28;20111;-78
2023/12/09 09:18:46;;;;;;;21.58;8.95;;;10.40;99.90;;;;;;5046715;28;20511;-77
2023/12/09 09:21:12;;;;;;;20.02;7.97;;;10.50;99.90;;;;;;5043744;28;20512;-82
2023/12/09 09:23:38;;;;;;;22.20;8.50;;;11.90;99.90;;;;;;5017087;28;20036;-79
2023/12/09 09:26:05;;;;;;;18.75;8.40;;;11.60;99.90;;;;;;5032920;28;20045;-76
2023/12/09 09:28:30;;;;;;;21.42;8.68;;;12.20;99.90;;;;;;5024931;28;20044;-75
2023/12/09 09:30:56;;;;;;;21.13;8.65;;;12.10;99.90;;;;;;5023903;28;20045;-81
2023/12/09 09:33:22;;;;;;;22.58;7.88;;;10.40;99.90;;;;;;5013033;28;20045;-76
2023/12/09 09:35:51;;;;;;;21.67;7.68;;;10.50;99.90;;;;;;5031875;28;20043;-76
2023/12/09 09:38:16;;;;;;;20.42;7.38;;;10.60;99.90;;;;;;5035409;28;20084;-78
2023/12/09 09:40:42;;;;;;;20.00;7.18;;;11.80;99.90;;;;;;5053020;28;20072;-78
2023/12/09 09:43:12;;;;;;;18.27;7.57;;;11.00;99.90;;;;;;5037848;28;20405;-78
2023/12/09 09:45:41;;;;;;;17.13;7.07;;;11.20;99.90;;;;;;5016190;28;20094;-80
2023/12/09 09:48:12;;;;;;;17.85;7.03;;;11.80;99.90;;;;;;5032772;28;20061;-81
2023/12/09 09:50:44;;;;;;;18.30;6.38;;;11.30;99.90;;;;;;5032519;28;20063;-76
2023/12/09 09:53:13;;;;;;;16.75;6.03;;;11.60;99.90;;;;;;5030229;28;20137;-80
2023/12/09 09:55:42;;;;;;;14.50;6.40;;;11.30;99.90;;;;;;4998609;28;20505;-79
2023/12/09 09:58:08;;;;;;;17.42;7.00;;;10.40;99.90;;;;;;5014384;28;20087;-75
2023/12/09 10:00:34;;;;;;;17.88;5.93;;;10.70;99.90;;;;;;5023828;28;20035;-79
2023/12/09 10:03:00;;;;;;;16.80;6.22;;;10.70;99.90;;;;;;5035683;28;20124;-77
2023/12/09 10:05:26;;;;;;;14.98;5.32;;;11.70;99.90;;;;;;5048738;28;20052;-79
2023/12/09 10:07:54;;;;;;;12.43;5.18;;;10.50;99.90;;;;;;5014763;28;20508;-77
2023/12/09 10:10:19;;;;;;;14.18;5.35;;;11.10;99.90;;;;;;5023589;28;20483;-77
2023/12/09 10:12:45;;;;;;;18.80;5.35;;;10.60;99.90;;;;;;5046380;28;20067;-76
2023/12/09 10:15:11;;;;;;;15.25;5.53;;;11.60;99.90;;;;;;5022457;28;20493;-83
2023/12/09 10:17:37;;;;;;;16.30;5.53;;;10.50;99.90;;;;;;5041848;28;20071;-76
2023/12/09 10:20:05;;;;;;;15.05;5.32;;;10.80;99.90;;;;;;5031595;28;20033;-80
2023/12/09 10:22:32;;;;;;;20.85;6.03;;;10.60;99.90;;;;;;5033052;28;20080;-79
2023/12/09 10:24:57;;;;;;;14.48;5.00;;;11.70;99.90;;;;;;5030157;28;20066;-77
2023/12/09 10:27:25;;;;;;;10.65;4.68;;;11.10;99.90;;;;;;5026283;28;20048;-77
2023/12/09 10:29:52;;;;;;;18.02;5.03;;;10.60;99.90;;;;;;5029990;28;20083;-78
2023/12/09 10:32:21;;;;;;;16.83;5.78;;;11.40;99.90;;;;;;5011272;28;20072;-75
2023/12/09 10:34:48;;;;;;;10.43;4.22;;;10.60;99.90;;;;;;5015218;28;20475;-76
2023/12/09 10:37:16;;;;;;;15.85;4.35;;;11.50;99.90;;;;;;5032530;28;20457;-78
2023/12/09 10:39:45;;;;;;;15.38;4.50;;;11.90;99.90;;;;;;5031903;28;20117;-78
2023/12/09 10:42:12;;;;;;;15.40;5.38;;;10.70;99.90;;;;;;5015208;28;20087;-79
2023/12/09 10:44:39;;;;;;;12.75;5.07;;;11.40;99.90;;;;;;5033661;28;20053;-77
2023/12/09 10:47:05;;;;;;;14.25;4.82;;;12.10;99.90;;;;;;5045537;28;20045;-78
2023/12/09 10:49:31;;;;;;;9.55;4.60;;;11.80;99.90;;;;;;5013800;28;20053;-81
2023/12/09 10:51:57;;;;;;;9.48;3.92;;;10.70;99.90;;;;;;5005508;28;20052;-78
2023/12/09 10:54:23;;;;;;;12.63;4.32;;;11.50;99.90;;;;;;4997518;28;20041;-80
2023/12/09 10:56:49;;;;;;;16.52;4.97;;;12.00;99.90;;;;;;5013421;28;20037;-77
2023/12/09 10:59:17;;;;;;;11.05;3.45;;;12.10;99.90;;;;;;5030678;28;20048;-80
2023/12/09 11:01:45;;;;;;;12.48;4.53;;;12.20;99.90;;;;;;5028322;28;20040;-75
2023/12/09 11:04:12;;;;;;;11.05;4.25;;;11.40;99.90;;;;;;5021963;28;20045;-78
2023/12/09 11:06:40;;;;;;;9.18;4.15;;;11.70;99.90;;;;;;5021644;28;20389;-79
2023/12/09 11:09:07;;;;;;;14.35;4.25;;;11.00;99.90;;;;;;5014076;28;20049;-75
2023/12/09 11:11:34;;;;;;;10.38;3.90;;;12.00;99.90;;;;;;5013068;28;20120;-77
2023/12/09 11:13:59;;;;;;;9.50;4.00;;;11.90;99.90;;;;;;5035372;28;20041;-79
2023/12/09 11:16:28;;;;;;;11.15;4.05;;;11.30;99.90;;;;;;5010782;28;20098;-76
2023/12/09 11:18:55;;;;;;;10.63;4.43;;;11.20;99.90;;;;;;4996585;28;20041;-79
2023/12/09 11:21:27;;;;;;;13.02;4.60;;;11.80;99.90;;;;;;5032397;28;20076;-79
2023/12/09 11:23:55;;;;;;;10.38;3.80;;;11.60;99.90;;;;;;5039453;28;20082;-79
2023/12/09 11:26:33;;;;;;;11.32;5.50;;;11.70;99.90;;;;;;5025293;28;20472;-78
2023/12/09 11:29:07;;;;;;;13.23;6.25;;;11.10;99.90;;;;;;5015308;28;20040;-78
2023/12/09 11:31:38;;;;;;;12.55;5.30;;;11.90;99.90;;;;;;5015425;28;20037;-77
2023/12/09 11:34:08;;;;;;;14.85;6.65;;;11.80;99.90;;;;;;5016474;28;20566;-74
2023/12/09 11:36:36;;;;;;;10.55;4.13;;;12.00;99.90;;;;;;5051847;28;20040;-80
2023/12/09 11:39:19;;;;;;;16.02;4.95;;;11.40;99.90;;;;;;5035612;28;20040;-77
2023/12/09 11:41:46;;;;;;;10.82;4.10;;;11.90;99.90;;;;;;5029759;28;20063;-77
2023/12/09 11:44:13;;;;;;;13.30;4.43;;;11.70;99.90;;;;;;5026697;28;20120;-76
2023/12/09 11:46:39;;;;;;;10.27;3.97;;;11.70;99.90;;;;;;5029202;28;20453;-76
2023/12/09 11:49:06;;;;;;;9.23;4.15;;;11.20;99.90;;;;;;5030702;28;20052;-78
2023/12/09 11:51:34;;;;;;;12.77;5.38;;;11.10;99.90;;;;;;4998745;28;20041;-78
2023/12/09 11:54:05;;;;;;;14.13;4.50;;;11.30;99.90;;;;;;5010146;28;20037;-78
2023/12/09 11:56:31;;;;;;;9.00;3.83;;;11.50;99.90;;;;;;5034284;28;20041;-76
2023/12/09 11:58:58;;;;;;;12.90;4.20;;;11.10;99.90;;;;;;5050985;28;20086;-81
2023/12/09 12:01:25;;;;;;;11.55;3.42;;;11.40;99.90;;;;;;5019369;28;20186;-81
2023/12/09 12:03:55;;;;;;;9.55;4.45;;;11.50;99.90;;;;;;5011774;28;20044;-77
2023/12/09 12:06:22;;;;;;;10.38;3.70;;;12.00;99.90;;;;;;5015056;28;20040;-77
2023/12/09 12:08:51;;;;;;;10.98;3.50;;;11.30;99.90;;;;;;5037843;28;20151;-81
2023/12/09 12:11:18;;;;;;;11.38;3.88;;;11.40;99.90;;;;;;5028189;28;20370;-78
2023/12/09 12:13:44;;;;;;;9.27;3.60;;;11.30;99.90;;;;;;5018098;28;20037;-78
2023/12/09 12:16:11;;;;;;;9.25;3.75;;;11.80;99.90;;;;;;5013149;28;20135;-79
2023/12/09 12:18:37;;;;;;;12.13;4.30;;;11.90;99.90;;;;;;5033009;28;20037;-76
2023/12/09 12:21:05;;;;;;;10.27;3.50;;;11.90;99.90;;;;;;5017804;28;20134;-81
2023/12/09 12:23:31;;;;;;;12.23;3.33;;;11.30;99.90;;;;;;5018579;28;20073;-84
2023/12/09 12:25:57;;;;;;;10.20;4.07;;;11.80;99.90;;;;;;5033559;28;20486;-77